sensor_id;sensor_type;location;lat;lon;timestamp;temperature;humidity
11107;DHT22;5607;48.302;14.294;2023-07-20T00:02:28;22.80;99.90
11107;DHT22;5607;48.302;14.294;2023-07-20T00:05:14;22.70;99.90
11107;DHT22;5607;48.302;14.294;2023-07-20T00:08:04;22.60;99.90
11107;DHT22;5607;48.302;14.294;2023-07-20T00:10:50;22.60;99.90
11107;DHT22;5607;48.302;14.294;2023-07-20T00:13:36;22.50;99.90
11107;DHT22;5607;48.302;14.294;2023-07-20T00:16:23;22.40;99.90
11107;DHT22;5607;48.302;14.294;2023-07-20T00:19:09;22.20;99.90
11107;DHT22;5607;48.302;14.294;2023-07-20T00:21:57;22.10;99.90
11107;DHT22;5607;48.302;14.294;2023-07-20T00:24:43;21.90;99.90
11107;DHT22;5607;48.302;14.294;2023-07-20T00:27:30;21.90;99.90
11107;DHT22;5607;48.302;14.294;2023-07-20T00:30:16;21.90;99.90
11107;DHT22;5607;48.302;14.294;2023-07-20T00:33:04;22.10;99.90
11107;DHT22;5607;48.302;14.294;2023-07-20T00:35:50;22.30;99.90
11107;DHT22;5607;48.302;14.294;2023-07-20T00:38:37;22.30;99.90
11107;DHT22;5607;48.302;14.294;2023-07-20T00:41:23;22.20;99.90
11107;DHT22;5607;48.302;14.294;2023-07-20T00:44:09;22.20;99.90
11107;DHT22;5607;48.302;14.294;2023-07-20T00:46:56;22.20;99.90
11107;DHT22;5607;48.302;14.294;2023-07-20T00:49:43;22.20;99.90
11107;DHT22;5607;48.302;14.294;2023-07-20T00:52:29;22.10;99.90
11107;DHT22;5607;48.302;14.294;2023-07-20T00:55:16;22.10;99.90
11107;DHT22;5607;48.302;14.294;2023-07-20T00:58:02;22.10;99.90
11107;DHT22;5607;48.302;14.294;2023-07-20T01:00:49;22.10;99.90
11107;DHT22;5607;48.302;14.294;2023-07-20T01:03:35;22.00;99.90
11107;DHT22;5607;48.302;14.294;2023-07-20T01:06:26;22.10;99.90
11107;DHT22;5607;48.302;14.294;2023-07-20T01:09:19;22.00;99.90
11107;DHT22;5607;48.302;14.294;2023-07-20T01:12:15;21.90;99.90
11107;DHT22;5607;48.302;14.294;2023-07-20T01:15:05;21.70;99.90
11107;DHT22;5607;48.302;14.294;2023-07-20T01:17:53;21.50;99.90
11107;DHT22;5607;48.302;14.294;2023-07-20T01:20:40;21.40;99.90
11107;DHT22;5607;48.302;14.294;2023-07-20T01:26:24;21.50;99.90
11107;DHT22;5607;48.302;14.294;2023-07-20T01:29:17;21.60;99.90
11107;DHT22;5607;48.302;14.294;2023-07-20T01:32:08;21.70;99.90
11107;DHT22;5607;48.302;14.294;2023-07-20T01:34:55;21.80;99.90
11107;DHT22;5607;48.302;14.294;2023-07-20T01:37:43;21.60;99.90
11107;DHT22;5607;48.302;14.294;2023-07-20T01:40:30;21.60;99.90
11107;DHT22;5607;48.302;14.294;2023-07-20T01:43:17;21.40;99.90
11107;DHT22;5607;48.302;14.294;2023-07-20T01:46:03;21.50;99.90
11107;DHT22;5607;48.302;14.294;2023-07-20T01:48:51;21.50;99.90
11107;DHT22;5607;48.302;14.294;2023-07-20T01:51:37;21.60;99.90
11107;DHT22;5607;48.302;14.294;2023-07-20T01:54:23;21.50;99.90
11107;DHT22;5607;48.302;14.294;2023-07-20T01:57:10;21.40;99.90
11107;DHT22;5607;48.302;14.294;2023-07-20T01:59:56;21.30;99.90
11107;DHT22;5607;48.302;14.294;2023-07-20T02:02:42;21.30;99.90
11107;DHT22;5607;48.302;14.294;2023-07-20T02:05:29;21.20;99.90
11107;DHT22;5607;48.302;14.294;2023-07-20T02:08:15;21.20;99.90
11107;DHT22;5607;48.302;14.294;2023-07-20T02:11:02;21.20;99.90
11107;DHT22;5607;48.302;14.294;2023-07-20T02:13:48;21.20;99.90
11107;DHT22;5607;48.302;14.294;2023-07-20T02:16:35;21.30;99.90
11107;DHT22;5607;48.302;14.294;2023-07-20T02:19:21;21.30;99.90
11107;DHT22;5607;48.302;14.294;2023-07-20T02:22:07;21.40;99.90
11107;DHT22;5607;48.302;14.294;2023-07-20T02:24:53;21.40;99.90
11107;DHT22;5607;48.302;14.294;2023-07-20T02:27:40;21.50;99.90
11107;DHT22;5607;48.302;14.294;2023-07-20T02:30:27;21.40;99.90
11107;DHT22;5607;48.302;14.294;2023-07-20T02:33:13;21.50;99.90
11107;DHT22;5607;48.302;14.294;2023-07-20T02:36:00;21.50;99.90
11107;DHT22;5607;48.302;14.294;2023-07-20T02:38:46;21.60;99.90
11107;DHT22;5607;48.302;14.294;2023-07-20T02:41:32;21.40;99.90
11107;DHT22;5607;48.302;14.294;2023-07-20T02:44:19;21.40;99.90
11107;DHT22;5607;48.302;14.294;2023-07-20T02:47:05;21.40;99.90
11107;DHT22;5607;48.302;14.294;2023-07-20T02:49:52;21.30;99.90
11107;DHT22;5607;48.302;14.294;2023-07-20T02:52:38;21.20;99.90
11107;DHT22;5607;48.302;14.294;2023-07-20T02:55:24;20.80;99.90
11107;DHT22;5607;48.302;14.294;2023-07-20T02:58:10;20.60;99.90
11107;DHT22;5607;48.302;14.294;2023-07-20T03:00:57;20.60;99.90
11107;DHT22;5607;48.302;14.294;2023-07-20T03:03:43;20.70;99.90
11107;DHT22;5607;48.302;14.294;2023-07-20T03:06:32;20.80;99.90
11107;DHT22;5607;48.302;14.294;2023-07-20T03:09:21;20.80;99.90
11107;DHT22;5607;48.302;14.294;2023-07-20T03:12:08;20.80;99.90
11107;DHT22;5607;48.302;14.294;2023-07-20T03:14:55;20.80;99.90
11107;DHT22;5607;48.302;14.294;2023-07-20T03:17:43;20.90;99.90
11107;DHT22;5607;48.302;14.294;2023-07-20T03:20:29;20.90;99.90
11107;DHT22;5607;48.302;14.294;2023-07-20T03:23:16;21.10;99.90
11107;DHT22;5607;48.302;14.294;2023-07-20T03:26:02;21.00;99.90
11107;DHT22;5607;48.302;14.294;2023-07-20T03:28:49;20.90;99.90
11107;DHT22;5607;48.302;14.294;2023-07-20T03:31:35;21.00;99.90
11107;DHT22;5607;48.302;14.294;2023-07-20T03:34:21;21.00;99.90
11107;DHT22;5607;48.302;14.294;2023-07-20T03:37:07;21.00;99.90
11107;DHT22;5607;48.302;14.294;2023-07-20T03:39:53;21.00;99.90
11107;DHT22;5607;48.302;14.294;2023-07-20T03:42:40;21.00;99.90
11107;DHT22;5607;48.302;14.294;2023-07-20T03:45:26;21.10;99.90
11107;DHT22;5607;48.302;14.294;2023-07-20T03:48:12;21.20;99.90
11107;DHT22;5607;48.302;14.294;2023-07-20T03:50:58;21.30;99.90
11107;DHT22;5607;48.302;14.294;2023-07-20T03:53:46;21.30;99.90
11107;DHT22;5607;48.302;14.294;2023-07-20T03:56:32;21.40;99.90
11107;DHT22;5607;48.302;14.294;2023-07-20T03:59:21;21.40;99.90
11107;DHT22;5607;48.302;14.294;2023-07-20T04:02:07;21.50;99.90
11107;DHT22;5607;48.302;14.294;2023-07-20T04:04:53;21.60;99.90
11107;DHT22;5607;48.302;14.294;2023-07-20T04:07:39;21.70;99.90
11107;DHT22;5607;48.302;14.294;2023-07-20T04:10:26;21.80;99.90
11107;DHT22;5607;48.302;14.294;2023-07-20T04:13:12;21.80;99.90
11107;DHT22;5607;48.302;14.294;2023-07-20T04:15:58;21.90;99.90
11107;DHT22;5607;48.302;14.294;2023-07-20T04:18:44;21.90;99.90
11107;DHT22;5607;48.302;14.294;2023-07-20T04:21:31;21.90;99.90
11107;DHT22;5607;48.302;14.294;2023-07-20T04:24:17;21.90;99.90
11107;DHT22;5607;48.302;14.294;2023-07-20T04:27:04;22.00;99.90
11107;DHT22;5607;48.302;14.294;2023-07-20T04:29:50;21.80;99.90
11107;DHT22;5607;48.302;14.294;2023-07-20T04:32:37;21.60;99.90
11107;DHT22;5607;48.302;14.294;2023-07-20T04:38:28;21.70;99.90
11107;DHT22;5607;48.302;14.294;2023-07-20T04:41:14;21.80;99.90
11107;DHT22;5607;48.302;14.294;2023-07-20T04:44:01;21.90;99.90
11107;DHT22;5607;48.302;14.294;2023-07-20T04:46:47;21.80;99.90
11107;DHT22;5607;48.302;14.294;2023-07-20T04:49:33;21.70;99.90
11107;DHT22;5607;48.302;14.294;2023-07-20T04:52:20;21.50;99.90
11107;DHT22;5607;48.302;14.294;2023-07-20T04:55:06;21.40;99.90
11107;DHT22;5607;48.302;14.294;2023-07-20T04:57:52;21.40;99.90
11107;DHT22;5607;48.302;14.294;2023-07-20T05:00:39;21.40;99.90
11107;DHT22;5607;48.302;14.294;2023-07-20T05:03:25;21.50;99.90
11107;DHT22;5607;48.302;14.294;2023-07-20T05:06:11;21.60;99.90
11107;DHT22;5607;48.302;14.294;2023-07-20T05:08:58;21.60;99.90
11107;DHT22;5607;48.302;14.294;2023-07-20T05:11:44;21.50;99.90
11107;DHT22;5607;48.302;14.294;2023-07-20T05:14:33;21.60;99.90
11107;DHT22;5607;48.302;14.294;2023-07-20T05:17:19;21.60;99.90
11107;DHT22;5607;48.302;14.294;2023-07-20T05:20:06;21.70;99.90
11107;DHT22;5607;48.302;14.294;2023-07-20T05:22:52;21.80;99.90
11107;DHT22;5607;48.302;14.294;2023-07-20T05:25:39;21.80;99.90
11107;DHT22;5607;48.302;14.294;2023-07-20T05:28:25;21.70;99.90
11107;DHT22;5607;48.302;14.294;2023-07-20T05:31:14;21.60;99.90
11107;DHT22;5607;48.302;14.294;2023-07-20T05:34:01;21.50;99.90
11107;DHT22;5607;48.302;14.294;2023-07-20T05:39:57;21.60;99.90
11107;DHT22;5607;48.302;14.294;2023-07-20T05:42:44;21.50;99.90
11107;DHT22;5607;48.302;14.294;2023-07-20T05:45:30;21.40;99.90
11107;DHT22;5607;48.302;14.294;2023-07-20T05:48:16;21.40;99.90
11107;DHT22;5607;48.302;14.294;2023-07-20T05:51:03;21.60;99.90
11107;DHT22;5607;48.302;14.294;2023-07-20T05:53:49;21.80;99.90
11107;DHT22;5607;48.302;14.294;2023-07-20T05:56:35;22.10;99.90
11107;DHT22;5607;48.302;14.294;2023-07-20T05:59:21;22.10;99.90
11107;DHT22;5607;48.302;14.294;2023-07-20T06:02:10;22.00;99.90
11107;DHT22;5607;48.302;14.294;2023-07-20T06:04:57;21.90;99.90
11107;DHT22;5607;48.302;14.294;2023-07-20T06:07:43;21.90;99.90
11107;DHT22;5607;48.302;14.294;2023-07-20T06:10:29;21.90;99.90
11107;DHT22;5607;48.302;14.294;2023-07-20T06:13:16;21.90;99.90
11107;DHT22;5607;48.302;14.294;2023-07-20T06:16:02;22.00;99.90
11107;DHT22;5607;48.302;14.294;2023-07-20T06:18:49;22.30;99.90
11107;DHT22;5607;48.302;14.294;2023-07-20T06:21:36;22.40;99.90
11107;DHT22;5607;48.302;14.294;2023-07-20T06:24:22;22.70;99.90
11107;DHT22;5607;48.302;14.294;2023-07-20T06:27:08;23.00;99.90
11107;DHT22;5607;48.302;14.294;2023-07-20T06:29:54;23.20;99.90
11107;DHT22;5607;48.302;14.294;2023-07-20T06:32:41;23.30;99.90
11107;DHT22;5607;48.302;14.294;2023-07-20T06:35:27;23.00;99.90
11107;DHT22;5607;48.302;14.294;2023-07-20T06:38:13;22.80;99.90
11107;DHT22;5607;48.302;14.294;2023-07-20T06:41:00;22.70;99.90
11107;DHT22;5607;48.302;14.294;2023-07-20T06:43:47;23.00;99.90
11107;DHT22;5607;48.302;14.294;2023-07-20T06:46:33;23.40;99.90
11107;DHT22;5607;48.302;14.294;2023-07-20T06:49:28;23.80;99.90
11107;DHT22;5607;48.302;14.294;2023-07-20T06:52:14;24.30;99.90
11107;DHT22;5607;48.302;14.294;2023-07-20T06:55:01;24.40;84.80
11107;DHT22;5607;48.302;14.294;2023-07-20T06:57:48;23.90;93.40
11107;DHT22;5607;48.302;14.294;2023-07-20T07:00:34;23.60;94.00
11107;DHT22;5607;48.302;14.294;2023-07-20T07:03:21;23.60;99.80
11107;DHT22;5607;48.302;14.294;2023-07-20T07:06:07;23.50;98.30
11107;DHT22;5607;48.302;14.294;2023-07-20T07:08:54;23.70;98.90
11107;DHT22;5607;48.302;14.294;2023-07-20T07:11:40;23.60;99.90
11107;DHT22;5607;48.302;14.294;2023-07-20T07:14:27;23.50;99.90
11107;DHT22;5607;48.302;14.294;2023-07-20T07:17:13;23.60;99.90
11107;DHT22;5607;48.302;14.294;2023-07-20T07:20:02;23.90;97.20
11107;DHT22;5607;48.302;14.294;2023-07-20T07:22:50;23.90;90.60
11107;DHT22;5607;48.302;14.294;2023-07-20T07:25:36;23.80;99.90
11107;DHT22;5607;48.302;14.294;2023-07-20T07:28:22;23.60;98.90
11107;DHT22;5607;48.302;14.294;2023-07-20T07:31:08;23.40;99.90
11107;DHT22;5607;48.302;14.294;2023-07-20T07:33:55;23.50;96.20
11107;DHT22;5607;48.302;14.294;2023-07-20T07:36:41;23.80;94.60
11107;DHT22;5607;48.302;14.294;2023-07-20T07:39:27;23.50;94.80
11107;DHT22;5607;48.302;14.294;2023-07-20T07:42:15;23.50;96.90
11107;DHT22;5607;48.302;14.294;2023-07-20T07:45:02;23.60;86.70
11107;DHT22;5607;48.302;14.294;2023-07-20T07:47:48;23.70;76.10
11107;DHT22;5607;48.302;14.294;2023-07-20T07:50:34;23.80;75.00
11107;DHT22;5607;48.302;14.294;2023-07-20T07:53:22;24.40;54.20
11107;DHT22;5607;48.302;14.294;2023-07-20T07:56:09;24.50;67.50
11107;DHT22;5607;48.302;14.294;2023-07-20T07:58:55;24.20;71.30
11107;DHT22;5607;48.302;14.294;2023-07-20T08:01:41;24.10;72.80
11107;DHT22;5607;48.302;14.294;2023-07-20T08:04:28;24.20;60.10
11107;DHT22;5607;48.302;14.294;2023-07-20T08:07:14;25.00;55.50
11107;DHT22;5607;48.302;14.294;2023-07-20T08:10:00;25.70;32.90
11107;DHT22;5607;48.302;14.294;2023-07-20T08:12:46;25.70;33.50
11107;DHT22;5607;48.302;14.294;2023-07-20T08:15:32;25.90;26.40
11107;DHT22;5607;48.302;14.294;2023-07-20T08:18:19;26.00;15.70
11107;DHT22;5607;48.302;14.294;2023-07-20T08:21:05;26.10;18.60
11107;DHT22;5607;48.302;14.294;2023-07-20T08:23:51;26.00;18.00
11107;DHT22;5607;48.302;14.294;2023-07-20T08:26:37;26.10;9.70
11107;DHT22;5607;48.302;14.294;2023-07-20T08:29:25;26.20;14.60
11107;DHT22;5607;48.302;14.294;2023-07-20T08:32:11;26.40;15.80
11107;DHT22;5607;48.302;14.294;2023-07-20T08:34:59;26.50;8.00
11107;DHT22;5607;48.302;14.294;2023-07-20T08:37:45;25.70;9.30
11107;DHT22;5607;48.302;14.294;2023-07-20T08:40:32;24.80;15.70
11107;DHT22;5607;48.302;14.294;2023-07-20T08:43:19;24.90;18.60
11107;DHT22;5607;48.302;14.294;2023-07-20T08:46:05;25.20;14.80
11107;DHT22;5607;48.302;14.294;2023-07-20T08:48:51;25.60;12.60
11107;DHT22;5607;48.302;14.294;2023-07-20T08:51:38;25.50;17.10
11107;DHT22;5607;48.302;14.294;2023-07-20T08:54:26;25.70;7.30
11107;DHT22;5607;48.302;14.294;2023-07-20T08:57:13;25.90;4.90
11107;DHT22;5607;48.302;14.294;2023-07-20T09:00:03;25.40;6.60
11107;DHT22;5607;48.302;14.294;2023-07-20T09:02:58;25.50;1.00
11107;DHT22;5607;48.302;14.294;2023-07-20T09:05:45;25.70;4.50
11107;DHT22;5607;48.302;14.294;2023-07-20T09:08:33;25.60;1.50
11107;DHT22;5607;48.302;14.294;2023-07-20T09:11:20;25.80;1.00
11107;DHT22;5607;48.302;14.294;2023-07-20T09:14:07;25.70;1.00
11107;DHT22;5607;48.302;14.294;2023-07-20T09:16:54;25.20;4.00
11107;DHT22;5607;48.302;14.294;2023-07-20T09:19:48;25.30;2.60
11107;DHT22;5607;48.302;14.294;2023-07-20T09:22:34;24.90;5.50
11107;DHT22;5607;48.302;14.294;2023-07-20T09:25:20;24.60;3.90
11107;DHT22;5607;48.302;14.294;2023-07-20T09:28:08;24.50;10.00
11107;DHT22;5607;48.302;14.294;2023-07-20T09:30:54;24.70;1.00
11107;DHT22;5607;48.302;14.294;2023-07-20T09:33:42;24.70;1.00
11107;DHT22;5607;48.302;14.294;2023-07-20T09:36:29;24.50;1.00
11107;DHT22;5607;48.302;14.294;2023-07-20T09:39:15;24.40;4.50
11107;DHT22;5607;48.302;14.294;2023-07-20T09:42:02;24.70;8.00
11107;DHT22;5607;48.302;14.294;2023-07-20T09:44:48;24.80;3.60
11107;DHT22;5607;48.302;14.294;2023-07-20T09:47:38;25.00;1.00
11107;DHT22;5607;48.302;14.294;2023-07-20T09:50:24;25.50;5.70
11107;DHT22;5607;48.302;14.294;2023-07-20T09:53:11;26.00;4.10
11107;DHT22;5607;48.302;14.294;2023-07-20T09:55:58;26.30;1.00
11107;DHT22;5607;48.302;14.294;2023-07-20T09:58:45;26.00;1.00
11107;DHT22;5607;48.302;14.294;2023-07-20T10:01:32;25.90;1.00
11107;DHT22;5607;48.302;14.294;2023-07-20T10:04:18;26.00;1.00
11107;DHT22;5607;48.302;14.294;2023-07-20T10:07:09;26.20;1.00
11107;DHT22;5607;48.302;14.294;2023-07-20T10:09:59;26.40;1.00
11107;DHT22;5607;48.302;14.294;2023-07-20T10:12:47;26.60;1.00
11107;DHT22;5607;48.302;14.294;2023-07-20T10:15:34;26.20;1.00
11107;DHT22;5607;48.302;14.294;2023-07-20T10:18:23;25.90;1.00
11107;DHT22;5607;48.302;14.294;2023-07-20T10:21:11;26.20;1.00
11107;DHT22;5607;48.302;14.294;2023-07-20T10:23:59;26.20;1.00
11107;DHT22;5607;48.302;14.294;2023-07-20T10:26:45;26.40;1.00
11107;DHT22;5607;48.302;14.294;2023-07-20T10:29:32;26.30;1.00
11107;DHT22;5607;48.302;14.294;2023-07-20T10:32:19;26.20;1.00
11107;DHT22;5607;48.302;14.294;2023-07-20T10:35:11;25.80;1.00
11107;DHT22;5607;48.302;14.294;2023-07-20T10:38:01;25.80;1.00
11107;DHT22;5607;48.302;14.294;2023-07-20T10:40:54;25.90;1.00
11107;DHT22;5607;48.302;14.294;2023-07-20T10:43:44;26.10;1.00
11107;DHT22;5607;48.302;14.294;2023-07-20T10:49:25;26.60;1.00
11107;DHT22;5607;48.302;14.294;2023-07-20T10:52:13;27.00;1.00
11107;DHT22;5607;48.302;14.294;2023-07-20T10:55:10;26.50;1.00
11107;DHT22;5607;48.302;14.294;2023-07-20T10:58:14;26.30;1.00
11107;DHT22;5607;48.302;14.294;2023-07-20T11:01:01;26.60;1.00
11107;DHT22;5607;48.302;14.294;2023-07-20T11:03:48;26.60;1.00
11107;DHT22;5607;48.302;14.294;2023-07-20T11:06:36;26.90;1.00
11107;DHT22;5607;48.302;14.294;2023-07-20T11:09:24;26.20;1.00
11107;DHT22;5607;48.302;14.294;2023-07-20T11:14:59;26.30;1.00
11107;DHT22;5607;48.302;14.294;2023-07-20T11:17:45;26.80;1.00
11107;DHT22;5607;48.302;14.294;2023-07-20T11:20:32;27.00;1.00
11107;DHT22;5607;48.302;14.294;2023-07-20T11:23:21;27.10;1.00
11107;DHT22;5607;48.302;14.294;2023-07-20T11:26:07;27.10;1.00
11107;DHT22;5607;48.302;14.294;2023-07-20T11:28:54;27.20;1.00
11107;DHT22;5607;48.302;14.294;2023-07-20T11:31:41;27.50;1.00
11107;DHT22;5607;48.302;14.294;2023-07-20T11:34:29;27.50;1.00
11107;DHT22;5607;48.302;14.294;2023-07-20T11:37:19;27.30;1.00
11107;DHT22;5607;48.302;14.294;2023-07-20T11:40:06;27.70;1.00
11107;DHT22;5607;48.302;14.294;2023-07-20T11:42:52;27.80;1.00
11107;DHT22;5607;48.302;14.294;2023-07-20T11:45:39;28.00;1.00
11107;DHT22;5607;48.302;14.294;2023-07-20T11:48:25;27.90;1.00
11107;DHT22;5607;48.302;14.294;2023-07-20T11:51:15;28.10;1.00
11107;DHT22;5607;48.302;14.294;2023-07-20T11:54:02;27.90;1.00
11107;DHT22;5607;48.302;14.294;2023-07-20T11:56:53;27.90;1.00
11107;DHT22;5607;48.302;14.294;2023-07-20T11:59:39;27.90;1.00
11107;DHT22;5607;48.302;14.294;2023-07-20T12:02:38;28.00;1.00
11107;DHT22;5607;48.302;14.294;2023-07-20T12:05:25;27.60;1.00
11107;DHT22;5607;48.302;14.294;2023-07-20T12:08:14;27.50;1.00
11107;DHT22;5607;48.302;14.294;2023-07-20T12:11:01;27.90;1.00
11107;DHT22;5607;48.302;14.294;2023-07-20T12:13:47;27.40;1.00
11107;DHT22;5607;48.302;14.294;2023-07-20T12:16:34;27.80;1.00
11107;DHT22;5607;48.302;14.294;2023-07-20T12:19:20;27.80;1.00
11107;DHT22;5607;48.302;14.294;2023-07-20T12:22:07;27.90;1.00
11107;DHT22;5607;48.302;14.294;2023-07-20T12:24:53;28.00;1.00
11107;DHT22;5607;48.302;14.294;2023-07-20T12:27:39;28.40;1.00
11107;DHT22;5607;48.302;14.294;2023-07-20T12:30:27;28.80;1.00
11107;DHT22;5607;48.302;14.294;2023-07-20T12:33:13;28.80;1.00
11107;DHT22;5607;48.302;14.294;2023-07-20T12:36:09;28.90;1.00
11107;DHT22;5607;48.302;14.294;2023-07-20T12:38:56;28.70;1.00
11107;DHT22;5607;48.302;14.294;2023-07-20T12:41:42;28.70;1.00
11107;DHT22;5607;48.302;14.294;2023-07-20T12:44:28;28.10;1.00
11107;DHT22;5607;48.302;14.294;2023-07-20T12:47:15;27.70;1.00
11107;DHT22;5607;48.302;14.294;2023-07-20T12:50:01;27.80;1.00
11107;DHT22;5607;48.302;14.294;2023-07-20T12:52:47;28.10;1.00
11107;DHT22;5607;48.302;14.294;2023-07-20T12:55:33;28.60;1.00
11107;DHT22;5607;48.302;14.294;2023-07-20T12:58:20;29.00;1.00
11107;DHT22;5607;48.302;14.294;2023-07-20T13:01:06;29.60;1.00
11107;DHT22;5607;48.302;14.294;2023-07-20T13:03:52;29.50;1.00
11107;DHT22;5607;48.302;14.294;2023-07-20T13:06:40;29.40;1.00
11107;DHT22;5607;48.302;14.294;2023-07-20T13:09:27;29.90;1.00
11107;DHT22;5607;48.302;14.294;2023-07-20T13:12:14;30.00;1.00
11107;DHT22;5607;48.302;14.294;2023-07-20T13:15:01;29.90;1.00
11107;DHT22;5607;48.302;14.294;2023-07-20T13:17:48;29.60;1.00
11107;DHT22;5607;48.302;14.294;2023-07-20T13:20:35;29.80;1.00
11107;DHT22;5607;48.302;14.294;2023-07-20T13:23:23;29.40;1.00
11107;DHT22;5607;48.302;14.294;2023-07-20T13:26:09;29.60;1.00
11107;DHT22;5607;48.302;14.294;2023-07-20T13:28:56;29.60;1.00
11107;DHT22;5607;48.302;14.294;2023-07-20T13:31:43;29.80;1.00
11107;DHT22;5607;48.302;14.294;2023-07-20T13:34:29;30.30;1.00
11107;DHT22;5607;48.302;14.294;2023-07-20T13:37:15;30.90;1.00
11107;DHT22;5607;48.302;14.294;2023-07-20T13:40:04;31.10;1.00
11107;DHT22;5607;48.302;14.294;2023-07-20T13:42:51;31.70;1.00
11107;DHT22;5607;48.302;14.294;2023-07-20T13:45:37;31.80;1.00
11107;DHT22;5607;48.302;14.294;2023-07-20T13:48:23;30.80;1.00
11107;DHT22;5607;48.302;14.294;2023-07-20T13:51:10;31.40;1.00
11107;DHT22;5607;48.302;14.294;2023-07-20T13:53:56;31.90;1.00
11107;DHT22;5607;48.302;14.294;2023-07-20T13:56:43;33.20;1.00
11107;DHT22;5607;48.302;14.294;2023-07-20T13:59:29;34.80;1.00
11107;DHT22;5607;48.302;14.294;2023-07-20T14:02:15;34.70;1.00
11107;DHT22;5607;48.302;14.294;2023-07-20T14:05:02;34.20;1.00
11107;DHT22;5607;48.302;14.294;2023-07-20T14:07:48;32.90;1.00
11107;DHT22;5607;48.302;14.294;2023-07-20T14:10:37;32.50;1.00
11107;DHT22;5607;48.302;14.294;2023-07-20T14:13:24;32.50;1.00
11107;DHT22;5607;48.302;14.294;2023-07-20T14:16:10;34.40;1.00
11107;DHT22;5607;48.302;14.294;2023-07-20T14:18:56;33.70;1.00
11107;DHT22;5607;48.302;14.294;2023-07-20T14:21:44;35.00;1.00
11107;DHT22;5607;48.302;14.294;2023-07-20T14:24:31;37.90;1.00
11107;DHT22;5607;48.302;14.294;2023-07-20T14:27:20;39.60;1.00
11107;DHT22;5607;48.302;14.294;2023-07-20T14:30:06;39.70;1.00
11107;DHT22;5607;48.302;14.294;2023-07-20T14:32:54;41.60;1.00
11107;DHT22;5607;48.302;14.294;2023-07-20T14:35:40;39.30;1.00
11107;DHT22;5607;48.302;14.294;2023-07-20T14:38:26;37.90;1.00
11107;DHT22;5607;48.302;14.294;2023-07-20T14:41:13;38.60;1.00
11107;DHT22;5607;48.302;14.294;2023-07-20T14:43:59;41.80;1.00
11107;DHT22;5607;48.302;14.294;2023-07-20T14:46:45;40.80;1.00
11107;DHT22;5607;48.302;14.294;2023-07-20T14:49:32;40.80;1.00
11107;DHT22;5607;48.302;14.294;2023-07-20T14:52:18;42.60;1.00
11107;DHT22;5607;48.302;14.294;2023-07-20T14:55:04;41.40;1.00
11107;DHT22;5607;48.302;14.294;2023-07-20T14:57:51;40.50;1.00
11107;DHT22;5607;48.302;14.294;2023-07-20T15:00:37;41.00;1.00
11107;DHT22;5607;48.302;14.294;2023-07-20T15:03:23;41.10;1.00
11107;DHT22;5607;48.302;14.294;2023-07-20T15:06:12;43.90;1.00
11107;DHT22;5607;48.302;14.294;2023-07-20T15:08:58;43.00;1.00
11107;DHT22;5607;48.302;14.294;2023-07-20T15:11:46;42.70;1.00
11107;DHT22;5607;48.302;14.294;2023-07-20T15:14:33;44.30;1.00
11107;DHT22;5607;48.302;14.294;2023-07-20T15:17:19;45.00;1.00
11107;DHT22;5607;48.302;14.294;2023-07-20T15:20:06;45.40;1.00
11107;DHT22;5607;48.302;14.294;2023-07-20T15:22:53;46.20;1.00
11107;DHT22;5607;48.302;14.294;2023-07-20T15:25:39;45.10;1.00
11107;DHT22;5607;48.302;14.294;2023-07-20T15:28:25;44.20;1.00
11107;DHT22;5607;48.302;14.294;2023-07-20T15:31:11;42.80;1.00
11107;DHT22;5607;48.302;14.294;2023-07-20T15:33:57;42.70;1.00
11107;DHT22;5607;48.302;14.294;2023-07-20T15:36:44;42.80;1.00
11107;DHT22;5607;48.302;14.294;2023-07-20T15:39:30;44.60;1.00
11107;DHT22;5607;48.302;14.294;2023-07-20T15:42:16;45.40;1.00
11107;DHT22;5607;48.302;14.294;2023-07-20T15:45:03;46.20;1.00
11107;DHT22;5607;48.302;14.294;2023-07-20T15:47:49;47.00;1.00
11107;DHT22;5607;48.302;14.294;2023-07-20T15:50:35;46.10;1.00
11107;DHT22;5607;48.302;14.294;2023-07-20T15:53:22;44.70;1.00
11107;DHT22;5607;48.302;14.294;2023-07-20T15:56:08;45.30;1.00
11107;DHT22;5607;48.302;14.294;2023-07-20T15:58:54;45.20;1.00
11107;DHT22;5607;48.302;14.294;2023-07-20T16:01:40;41.80;1.00
11107;DHT22;5607;48.302;14.294;2023-07-20T16:04:28;39.50;1.00
11107;DHT22;5607;48.302;14.294;2023-07-20T16:07:16;37.90;1.00
11107;DHT22;5607;48.302;14.294;2023-07-20T16:10:03;35.90;1.00
11107;DHT22;5607;48.302;14.294;2023-07-20T16:12:49;33.90;1.00
11107;DHT22;5607;48.302;14.294;2023-07-20T16:15:37;32.40;1.00
11107;DHT22;5607;48.302;14.294;2023-07-20T16:18:23;31.60;1.00
11107;DHT22;5607;48.302;14.294;2023-07-20T16:21:10;31.20;1.00
11107;DHT22;5607;48.302;14.294;2023-07-20T16:23:56;30.80;1.00
11107;DHT22;5607;48.302;14.294;2023-07-20T16:26:42;30.70;1.00
11107;DHT22;5607;48.302;14.294;2023-07-20T16:29:30;30.40;1.00
11107;DHT22;5607;48.302;14.294;2023-07-20T16:32:16;30.40;1.00
11107;DHT22;5607;48.302;14.294;2023-07-20T16:35:03;30.10;1.00
11107;DHT22;5607;48.302;14.294;2023-07-20T16:37:49;29.80;1.00
11107;DHT22;5607;48.302;14.294;2023-07-20T16:40:36;29.90;1.00
11107;DHT22;5607;48.302;14.294;2023-07-20T16:43:22;29.80;1.00
11107;DHT22;5607;48.302;14.294;2023-07-20T16:46:09;29.50;1.00
11107;DHT22;5607;48.302;14.294;2023-07-20T16:48:55;29.60;1.00
11107;DHT22;5607;48.302;14.294;2023-07-20T16:51:42;29.50;1.00
11107;DHT22;5607;48.302;14.294;2023-07-20T16:54:28;29.40;1.00
11107;DHT22;5607;48.302;14.294;2023-07-20T16:57:15;29.40;1.00
11107;DHT22;5607;48.302;14.294;2023-07-20T17:00:01;29.30;1.00
11107;DHT22;5607;48.302;14.294;2023-07-20T17:02:48;29.10;1.00
11107;DHT22;5607;48.302;14.294;2023-07-20T17:05:35;29.00;1.00
11107;DHT22;5607;48.302;14.294;2023-07-20T17:08:21;29.10;1.00
11107;DHT22;5607;48.302;14.294;2023-07-20T17:11:07;29.10;1.00
11107;DHT22;5607;48.302;14.294;2023-07-20T17:13:54;28.90;1.00
11107;DHT22;5607;48.302;14.294;2023-07-20T17:16:40;28.70;1.00
11107;DHT22;5607;48.302;14.294;2023-07-20T17:19:26;28.60;1.00
11107;DHT22;5607;48.302;14.294;2023-07-20T17:22:12;28.40;1.00
11107;DHT22;5607;48.302;14.294;2023-07-20T17:24:59;28.20;1.00
11107;DHT22;5607;48.302;14.294;2023-07-20T17:27:45;28.00;1.00
11107;DHT22;5607;48.302;14.294;2023-07-20T17:30:31;27.90;1.00
11107;DHT22;5607;48.302;14.294;2023-07-20T17:33:17;27.90;1.00
11107;DHT22;5607;48.302;14.294;2023-07-20T17:36:04;27.80;1.00
11107;DHT22;5607;48.302;14.294;2023-07-20T17:38:50;27.80;1.00
11107;DHT22;5607;48.302;14.294;2023-07-20T17:41:37;27.70;1.00
11107;DHT22;5607;48.302;14.294;2023-07-20T17:44:23;27.60;1.00
11107;DHT22;5607;48.302;14.294;2023-07-20T17:47:10;27.50;1.00
11107;DHT22;5607;48.302;14.294;2023-07-20T17:49:57;27.50;1.00
11107;DHT22;5607;48.302;14.294;2023-07-20T17:52:43;27.50;1.00
11107;DHT22;5607;48.302;14.294;2023-07-20T17:55:29;27.60;1.00
11107;DHT22;5607;48.302;14.294;2023-07-20T17:58:16;27.70;1.00